Time;durP1;ratioP1;P1;durP2;ratioP2;P2;SDS_P1;SDS_P2;PMS_P1;PMS_P2;Temp;Humidity;BMP_temperature;BMP_pressure;BME280_temperature;BME280_humidity;BME280_pressure;Samples;Min_cycle;Max_cycle;Signal;HPM_P1;HPM_P2
2023/05/26 00:02:42;;;;;;;1.00;0.80;;;23.50;47.10;;;;;;6334148;28;19920;-53
2023/05/26 00:05:44;;;;;;;1.42;0.77;;;23.60;47.00;;;;;;6333521;28;20042;-54
2023/05/26 00:08:46;;;;;;;0.75;0.60;;;23.60;47.10;;;;;;6330986;28;20036;-52
2023/05/26 00:11:48;;;;;;;0.60;0.60;;;23.60;47.10;;;;;;6331769;28;20099;-53
2023/05/26 00:14:52;;;;;;;0.65;0.60;;;23.30;47.00;;;;;;6331594;28;20036;-54
2023/05/26 00:17:57;;;;;;;0.60;0.52;;;23.40;47.10;;;;;;6328524;28;20040;-53
2023/05/26 00:21:01;;;;;;;0.77;0.77;;;23.60;47.10;;;;;;6331534;28;20056;-55
2023/05/26 00:24:03;;;;;;;0.70;0.70;;;23.30;46.80;;;;;;6330263;28;20044;-52
2023/05/26 00:27:06;;;;;;;0.80;0.70;;;23.40;47.20;;;;;;6328590;28;20111;-53
2023/05/26 00:30:10;;;;;;;0.70;0.68;;;23.50;47.30;;;;;;6329981;28;20047;-53
2023/05/26 00:33:14;;;;;;;1.00;0.90;;;23.10;47.00;;;;;;6330721;28;20036;-53
2023/05/26 00:36:16;;;;;;;0.85;0.60;;;23.30;47.10;;;;;;6326124;28;20051;-53
2023/05/26 00:39:17;;;;;;;0.80;0.80;;;23.30;47.20;;;;;;6325105;28;20563;-53
2023/05/26 00:42:19;;;;;;;0.70;0.70;;;23.10;47.10;;;;;;6328237;28;20526;-53
2023/05/26 00:45:21;;;;;;;0.80;0.70;;;23.40;47.90;;;;;;6322782;28;20043;-54
2023/05/26 00:48:23;;;;;;;1.15;0.88;;;23.50;47.40;;;;;;6317482;28;20032;-54
2023/05/26 00:51:25;;;;;;;1.00;0.80;;;23.10;47.20;;;;;;6317721;28;20036;-55
2023/05/26 00:54:27;;;;;;;0.80;0.70;;;23.50;47.50;;;;;;6318063;28;20036;-51
2023/05/26 00:57:30;;;;;;;0.80;0.73;;;23.20;47.40;;;;;;6318872;28;20036;-52
2023/05/26 01:00:33;;;;;;;0.95;0.70;;;23.20;47.40;;;;;;6319749;28;20032;-53
2023/05/26 01:03:37;;;;;;;1.00;0.88;;;23.30;47.40;;;;;;6321698;28;20119;-55
2023/05/26 01:06:40;;;;;;;1.02;0.88;;;23.30;47.40;;;;;;6322232;28;20060;-55
2023/05/26 01:09:42;;;;;;;1.00;0.80;;;23.30;47.50;;;;;;6319758;28;20569;-52
2023/05/26 01:12:50;;;;;;;0.98;0.70;;;23.30;47.60;;;;;;6320050;28;20062;-54
2023/05/26 01:15:57;;;;;;;1.10;0.70;;;23.30;47.50;;;;;;6323775;28;20047;-54
2023/05/26 01:19:16;;;;;;;1.30;1.00;;;23.20;47.50;;;;;;6320233;28;20028;-53
2023/05/26 01:22:23;;;;;;;1.20;0.95;;;23.30;47.60;;;;;;6323693;28;20044;-52
2023/05/26 01:25:44;;;;;;;1.10;0.90;;;23.30;47.50;;;;;;6321173;28;20582;-52
2023/05/26 01:28:50;;;;;;;1.33;0.70;;;23.30;47.60;;;;;;6316536;28;20039;-52
2023/05/26 01:31:54;;;;;;;1.40;1.00;;;23.30;47.60;;;;;;6269363;28;20161;-54
2023/05/26 01:34:55;;;;;;;;;;;23.20;47.70;;;;;;6319751;28;20039;-53
2023/05/26 01:37:59;;;;;;;0.65;0.65;;;23.30;48.00;;;;;;6322541;28;19920;-53
2023/05/26 01:41:10;;;;;;;1.20;1.00;;;23.20;47.70;;;;;;6320515;28;20040;-53
2023/05/26 01:44:21;;;;;;;0.98;0.80;;;23.40;47.80;;;;;;6326510;28;20032;-54
2023/05/26 01:47:24;;;;;;;0.82;0.75;;;23.30;47.80;;;;;;6325633;28;20047;-55
2023/05/26 01:50:29;;;;;;;0.95;0.85;;;23.20;47.80;;;;;;6323476;28;20055;-52
2023/05/26 01:53:33;;;;;;;1.10;0.90;;;23.20;47.80;;;;;;6322501;28;20040;-54
2023/05/26 01:56:36;;;;;;;1.00;0.90;;;23.10;47.70;;;;;;6322248;28;20106;-54
2023/05/26 01:59:38;;;;;;;0.77;0.77;;;23.10;47.80;;;;;;6320934;28;20067;-53
2023/05/26 02:02:40;;;;;;;1.33;0.90;;;22.80;47.70;;;;;;6323081;28;20730;-54
2023/05/26 02:05:42;;;;;;;0.93;0.90;;;23.20;48.00;;;;;;6320869;28;20035;-52
2023/05/26 02:08:44;;;;;;;0.73;0.70;;;23.00;47.90;;;;;;6320568;28;20114;-53
2023/05/26 02:11:46;;;;;;;1.40;1.10;;;23.20;48.00;;;;;;6322209;28;20032;-48
2023/05/26 02:14:49;;;;;;;0.95;0.80;;;23.10;48.00;;;;;;6324183;28;20047;-48
2023/05/26 02:17:54;;;;;;;1.15;1.00;;;23.20;48.00;;;;;;6324954;28;20043;-51
2023/05/26 02:20:56;;;;;;;0.85;0.70;;;23.20;48.00;;;;;;6329316;28;20050;-50
2023/05/26 02:23:58;;;;;;;1.20;0.88;;;22.90;48.00;;;;;;6330267;28;20028;-49
2023/05/26 02:26:59;;;;;;;1.15;0.85;;;23.20;48.10;;;;;;6330407;28;20570;-47
2023/05/26 02:30:01;;;;;;;1.60;1.00;;;23.00;48.00;;;;;;6329162;28;20086;-51
2023/05/26 02:33:04;;;;;;;0.98;0.70;;;23.00;48.00;;;;;;6329171;28;20047;-47
2023/05/26 02:36:08;;;;;;;0.98;0.88;;;23.00;47.90;;;;;;6329611;28;20074;-47
2023/05/26 02:39:09;;;;;;;1.20;1.00;;;23.10;48.00;;;;;;6329072;28;20055;-49
2023/05/26 02:42:12;;;;;;;0.88;0.80;;;22.60;47.90;;;;;;6329195;28;20058;-46
2023/05/26 02:45:14;;;;;;;1.10;0.82;;;23.10;48.10;;;;;;6328394;28;20100;-50
2023/05/26 02:48:16;;;;;;;1.35;0.80;;;23.00;48.10;;;;;;6328406;28;20693;-51
2023/05/26 02:51:18;;;;;;;1.00;0.90;;;23.10;48.20;;;;;;6327902;28;20060;-50
2023/05/26 02:54:19;;;;;;;;;;;23.00;48.10;;;;;;6329404;28;20070;-49
2023/05/26 02:57:20;;;;;;;1.35;0.90;;;23.00;48.30;;;;;;6328059;28;19950;-46
2023/05/26 03:00:22;;;;;;;1.02;0.93;;;23.00;48.20;;;;;;6327498;28;20036;-49
2023/05/26 03:03:24;;;;;;;1.45;1.10;;;23.10;48.30;;;;;;6328626;28;20494;-47
2023/05/26 03:06:27;;;;;;;1.00;0.90;;;22.70;48.10;;;;;;6327431;28;20033;-46
2023/05/26 03:09:29;;;;;;;1.05;0.95;;;23.00;48.20;;;;;;6328551;28;20040;-50
2023/05/26 03:12:31;;;;;;;0.88;0.68;;;22.90;48.20;;;;;;6328207;28;20402;-49
2023/05/26 03:15:35;;;;;;;0.80;0.70;;;23.10;48.30;;;;;;6328968;28;20040;-47
2023/05/26 03:18:39;;;;;;;1.10;0.80;;;23.00;48.20;;;;;;6327724;28;20049;-50
2023/05/26 03:21:41;;;;;;;1.15;1.00;;;23.00;48.30;;;;;;6328013;28;20065;-48
2023/05/26 03:24:50;;;;;;;1.10;1.00;;;22.80;48.20;;;;;;6328804;28;20055;-48
2023/05/26 03:27:54;;;;;;;1.20;0.90;;;23.00;48.40;;;;;;6329435;28;20040;-49
2023/05/26 03:30:59;;;;;;;0.82;0.80;;;22.60;48.00;;;;;;6328949;28;20040;-50
2023/05/26 03:34:03;;;;;;;1.50;1.05;;;23.00;48.20;;;;;;6327738;28;20065;-50
2023/05/26 03:37:05;;;;;;;1.13;1.02;;;23.00;48.30;;;;;;6327257;28;20055;-47
2023/05/26 03:40:08;;;;;;;1.05;1.00;;;22.80;48.20;;;;;;6327450;28;20050;-48
2023/05/26 03:43:10;;;;;;;1.10;1.00;;;22.90;48.30;;;;;;6329083;28;20046;-49
2023/05/26 03:46:19;;;;;;;1.30;1.20;;;22.80;48.30;;;;;;6328318;28;20056;-47
2023/05/26 03:49:21;;;;;;;0.70;0.70;;;22.80;48.30;;;;;;6325834;28;20043;-47
2023/05/26 03:52:23;;;;;;;1.00;0.90;;;22.80;48.30;;;;;;6326009;28;20043;-48
2023/05/26 03:55:24;;;;;;;;;;;22.90;48.40;;;;;;6328176;28;20040;-47
2023/05/26 03:58:25;;;;;;;0.80;0.80;;;22.70;48.40;;;;;;6325946;28;19946;-47
2023/05/26 04:01:28;;;;;;;;;;;22.90;48.40;;;;;;6326223;28;20032;-47
2023/05/26 04:04:29;;;;;;;1.05;0.95;;;22.90;48.60;;;;;;6326753;28;19919;-47
2023/05/26 04:07:31;;;;;;;1.67;0.80;;;22.90;48.40;;;;;;6325938;28;20402;-48
2023/05/26 04:10:33;;;;;;;;;;;22.70;48.30;;;;;;6325347;28;20411;-54
2023/05/26 04:13:38;;;;;;;0.73;0.60;;;22.70;48.50;;;;;;6315567;28;19924;-55
2023/05/26 04:16:41;;;;;;;1.02;0.90;;;22.90;48.40;;;;;;6315162;28;20036;-55
2023/05/26 04:19:42;;;;;;;1.33;0.90;;;22.80;48.40;;;;;;6316335;28;20586;-55
2023/05/26 04:22:44;;;;;;;1.30;0.98;;;22.60;48.30;;;;;;6315616;28;20050;-55
2023/05/26 04:25:46;;;;;;;1.25;1.15;;;22.70;48.50;;;;;;6316137;28;20594;-56
2023/05/26 04:29:06;;;;;;;1.20;1.10;;;22.60;48.30;;;;;;6316076;28;20443;-56
2023/05/26 04:32:21;;;;;;;1.00;0.90;;;22.80;48.40;;;;;;6316298;28;20546;-56
2023/05/26 04:35:36;;;;;;;1.48;1.02;;;22.70;48.40;;;;;;6315784;28;20459;-56
2023/05/26 04:38:41;;;;;;;1.10;1.00;;;22.70;48.50;;;;;;6315677;28;20036;-55
2023/05/26 04:41:44;;;;;;;1.38;1.10;;;22.50;48.30;;;;;;6315056;28;20120;-55
2023/05/26 04:44:46;;;;;;;1.25;1.15;;;22.70;48.40;;;;;;6312906;28;20044;-55
2023/05/26 04:47:49;;;;;;;1.10;1.00;;;22.50;48.30;;;;;;6315373;28;20047;-54
2023/05/26 04:50:53;;;;;;;1.17;1.08;;;22.60;48.40;;;;;;6316401;28;20052;-55
2023/05/26 04:53:55;;;;;;;1.30;1.02;;;22.80;48.50;;;;;;6314933;28;20542;-55
2023/05/26 04:56:56;;;;;;;1.23;1.10;;;22.70;48.50;;;;;;6314939;28;20040;-55
2023/05/26 05:00:10;;;;;;;1.17;1.08;;;22.70;48.40;;;;;;6315497;28;20745;-54
2023/05/26 05:03:13;;;;;;;1.13;1.02;;;22.70;48.40;;;;;;6315210;28;20040;-55
2023/05/26 05:06:23;;;;;;;1.30;1.13;;;22.70;48.40;;;;;;6315535;28;20085;-55
2023/05/26 05:09:25;;;;;;;1.20;1.00;;;22.60;48.50;;;;;;6314624;28;20036;-54
2023/05/26 05:12:27;;;;;;;1.20;1.10;;;22.70;48.50;;;;;;6314204;28;20462;-55
2023/05/26 05:15:28;;;;;;;1.42;1.33;;;22.70;48.50;;;;;;6312980;28;20036;-53
2023/05/26 05:18:30;;;;;;;1.15;1.05;;;22.80;48.40;;;;;;6312743;28;20513;-54
2023/05/26 05:21:34;;;;;;;1.58;1.10;;;22.70;48.60;;;;;;6313772;28;20047;-55
2023/05/26 05:24:36;;;;;;;1.20;1.10;;;22.60;48.50;;;;;;6313548;28;20044;-55
2023/05/26 05:27:37;;;;;;;1.10;0.95;;;22.70;48.70;;;;;;6314739;28;20058;-55
2023/05/26 05:30:39;;;;;;;1.20;1.10;;;22.60;48.50;;;;;;6313364;28;20060;-56
2023/05/26 05:33:46;;;;;;;1.30;1.10;;;22.60;48.60;;;;;;6313382;28;20109;-54
2023/05/26 05:36:49;;;;;;;1.23;1.13;;;22.70;48.50;;;;;;6314039;28;20124;-54
2023/05/26 05:39:50;;;;;;;1.33;1.23;;;22.50;48.60;;;;;;6312697;28;20056;-55
2023/05/26 05:42:52;;;;;;;1.20;1.10;;;22.60;48.60;;;;;;6314079;28;20036;-56
2023/05/26 05:45:56;;;;;;;1.10;1.00;;;22.90;48.80;;;;;;6313175;28;20040;-54
2023/05/26 05:49:13;;;;;;;1.20;1.00;;;22.80;48.70;;;;;;6312474;28;20032;-54
2023/05/26 05:52:19;;;;;;;1.63;1.33;;;22.70;48.70;;;;;;6311070;28;20093;-52
2023/05/26 05:55:20;;;;;;;;;;;22.70;48.80;;;;;;6312207;28;20043;-55
2023/05/26 05:58:21;;;;;;;1.35;1.10;;;22.40;48.90;;;;;;6311289;28;20595;-54
2023/05/26 06:01:26;;;;;;;1.30;1.20;;;22.40;48.60;;;;;;6311983;28;20028;-55
2023/05/26 06:04:28;;;;;;;1.40;1.30;;;22.90;49.00;;;;;;6288830;28;20806;-54
2023/05/26 06:07:30;;;;;;;1.30;1.20;;;22.80;49.00;;;;;;6284037;28;20044;-53
2023/05/26 06:10:31;;;;;;;;;;;22.70;49.00;;;;;;6312886;28;20585;-48
2023/05/26 06:13:34;;;;;;;2.00;1.33;;;22.70;49.00;;;;;;6311265;28;19924;-53
2023/05/26 06:16:35;;;;;;;1.38;1.10;;;22.60;48.80;;;;;;6310252;28;20115;-55
2023/05/26 06:19:37;;;;;;;1.00;0.90;;;22.70;48.90;;;;;;6311179;28;20705;-55
2023/05/26 06:22:40;;;;;;;1.05;0.90;;;22.80;49.10;;;;;;6283065;28;20850;-54
2023/05/26 06:25:41;;;;;;;1.10;1.00;;;22.50;49.00;;;;;;6278525;28;20044;-55
2023/05/26 06:28:43;;;;;;;1.75;1.38;;;22.90;49.30;;;;;;6274562;28;20036;-54
2023/05/26 06:31:45;;;;;;;;;;;22.80;49.30;;;;;;6281592;28;20039;-50
2023/05/26 06:34:50;;;;;;;1.27;1.15;;;22.80;49.60;;;;;;6273974;28;20562;-54
2023/05/26 06:37:52;;;;;;;1.45;1.35;;;22.70;49.00;;;;;;6274823;28;20028;-54
2023/05/26 06:40:53;;;;;;;;;;;22.70;49.20;;;;;;6296939;28;20047;-54
2023/05/26 06:43:55;;;;;;;1.10;0.95;;;22.60;49.20;;;;;;6308793;28;19924;-53
2023/05/26 06:46:59;;;;;;;1.50;1.40;;;22.90;49.10;;;;;;6304241;28;20040;-54
2023/05/26 06:50:09;;;;;;;1.40;1.27;;;22.70;49.10;;;;;;6306154;28;20756;-57
2023/05/26 06:53:12;;;;;;;1.48;1.30;;;22.70;49.20;;;;;;6303827;28;20065;-55
2023/05/26 06:56:14;;;;;;;1.38;1.10;;;22.70;49.20;;;;;;6305061;28;20036;-53
2023/05/26 06:59:15;;;;;;;1.40;1.27;;;22.60;49.20;;;;;;6306105;28;20036;-52
2023/05/26 07:02:18;;;;;;;1.85;1.30;;;22.70;49.40;;;;;;6302541;28;20123;-54
2023/05/26 07:05:20;;;;;;;2.15;1.30;;;22.50;49.20;;;;;;6302473;28;20039;-52
2023/05/26 07:08:22;;;;;;;0.82;0.82;;;22.10;48.90;;;;;;6303498;28;20040;-54
2023/05/26 07:11:25;;;;;;;1.10;1.00;;;22.90;49.30;;;;;;6305776;28;20043;-52
2023/05/26 07:14:30;;;;;;;2.20;1.20;;;22.80;49.20;;;;;;6307890;28;20036;-51
2023/05/26 07:17:31;;;;;;;1.10;0.90;;;22.50;49.00;;;;;;6308435;28;20674;-51
2023/05/26 07:20:34;;;;;;;1.10;0.98;;;22.50;49.00;;;;;;6307422;28;20043;-51
2023/05/26 07:23:36;;;;;;;1.38;1.10;;;22.90;49.20;;;;;;6308046;28;20032;-53
2023/05/26 07:26:39;;;;;;;1.42;1.27;;;22.70;49.20;;;;;;6309431;28;20028;-54
2023/05/26 07:29:40;;;;;;;1.30;1.17;;;22.50;49.10;;;;;;6309358;28;20682;-53
2023/05/26 07:32:43;;;;;;;1.08;0.98;;;22.80;49.20;;;;;;6307356;28;20094;-52
2023/05/26 07:35:46;;;;;;;1.70;1.25;;;22.40;49.00;;;;;;6304678;28;20747;-54
2023/05/26 07:38:49;;;;;;;1.63;0.98;;;23.00;49.10;;;;;;6305780;28;20036;-58
2023/05/26 07:41:52;;;;;;;0.80;0.80;;;22.90;49.10;;;;;;6307231;28;20654;-58
2023/05/26 07:44:55;;;;;;;;;;;22.90;49.20;;;;;;6308653;28;20040;-58
2023/05/26 07:47:57;;;;;;;1.25;1.00;;;23.30;49.40;;;;;;6303541;28;20434;-58
2023/05/26 07:50:59;;;;;;;1.20;1.02;;;22.90;49.10;;;;;;6240712;28;20055;-57
2023/05/26 07:54:01;;;;;;;1.10;0.93;;;23.10;48.90;;;;;;6276463;28;20740;-57
2023/05/26 07:57:02;;;;;;;1.10;0.80;;;22.90;48.70;;;;;;6271224;28;20036;-58
2023/05/26 08:00:05;;;;;;;1.02;0.90;;;23.00;48.70;;;;;;6274427;28;20718;-52
2023/05/26 08:03:14;;;;;;;1.33;1.02;;;22.80;48.40;;;;;;6274306;28;20661;-56
2023/05/26 08:06:16;;;;;;;0.90;0.80;;;23.20;48.60;;;;;;6272662;28;20039;-54
2023/05/26 08:09:28;;;;;;;1.45;0.95;;;23.00;48.40;;;;;;6272837;28;20032;-55
2023/05/26 08:12:30;;;;;;;0.75;0.63;;;22.80;48.10;;;;;;6275698;28;20035;-55
2023/05/26 08:15:31;;;;;;;;;;;23.10;47.90;;;;;;6304943;28;20032;-57
2023/05/26 08:18:32;;;;;;;;;;;23.20;48.10;;;;;;6304838;28;19920;-58
2023/05/26 08:21:35;;;;;;;0.90;0.63;;;23.10;48.10;;;;;;6288042;28;19920;-57
2023/05/26 08:24:39;;;;;;;1.42;0.90;;;23.10;48.00;;;;;;6307432;28;20528;-55
2023/05/26 08:27:41;;;;;;;1.80;0.60;;;23.30;47.80;;;;;;6302522;28;20043;-58
2023/05/26 08:30:44;;;;;;;1.08;0.57;;;23.20;47.50;;;;;;6303050;28;20036;-58
2023/05/26 08:33:46;;;;;;;0.57;0.52;;;22.80;47.30;;;;;;6303798;28;20044;-57
2023/05/26 08:36:48;;;;;;;0.90;0.80;;;23.10;47.30;;;;;;6303143;28;20033;-56
2023/05/26 08:39:49;;;;;;;1.08;0.80;;;23.00;47.20;;;;;;6302771;28;20701;-58
2023/05/26 08:42:55;;;;;;;0.90;0.65;;;23.30;47.30;;;;;;6302800;28;20039;-58
2023/05/26 08:45:58;;;;;;;0.80;0.60;;;23.30;47.10;;;;;;6303841;28;20054;-58
2023/05/26 08:49:00;;;;;;;1.05;0.60;;;23.10;46.90;;;;;;6304567;28;20032;-57
2023/05/26 08:52:08;;;;;;;0.80;0.60;;;23.10;46.80;;;;;;6302101;28;20093;-58
2023/05/26 08:55:11;;;;;;;0.98;0.75;;;23.10;46.80;;;;;;6302720;28;20074;-58
2023/05/26 08:58:14;;;;;;;0.90;0.60;;;23.30;46.80;;;;;;6302319;28;20047;-59
2023/05/26 09:01:16;;;;;;;0.93;0.65;;;23.30;46.60;;;;;;6304607;28;20128;-59
2023/05/26 09:04:17;;;;;;;0.90;0.70;;;23.00;46.30;;;;;;6301720;28;20046;-57
2023/05/26 09:07:22;;;;;;;0.95;0.70;;;23.80;46.80;;;;;;6304770;28;20127;-57
2023/05/26 09:10:30;;;;;;;1.02;0.68;;;23.30;46.10;;;;;;6302420;28;20673;-57
2023/05/26 09:13:32;;;;;;;0.80;0.47;;;23.30;46.20;;;;;;6304362;28;20044;-57
2023/05/26 09:16:33;;;;;;;1.17;0.60;;;23.40;46.10;;;;;;6303994;28;20035;-58
2023/05/26 09:19:36;;;;;;;0.63;0.50;;;23.50;46.10;;;;;;6302776;28;20079;-59
2023/05/26 09:22:38;;;;;;;0.73;0.50;;;23.50;46.20;;;;;;6267981;28;20088;-58
2023/05/26 09:25:41;;;;;;;0.95;0.57;;;23.10;45.80;;;;;;6306739;28;20047;-57
2023/05/26 09:28:48;;;;;;;0.88;0.70;;;23.40;46.00;;;;;;6283860;28;20044;-56
2023/05/26 09:31:52;;;;;;;0.82;0.68;;;23.30;45.90;;;;;;6271579;28;20751;-54
2023/05/26 09:34:55;;;;;;;0.88;0.80;;;23.50;45.90;;;;;;6303850;28;20039;-53
2023/05/26 09:37:57;;;;;;;0.65;0.50;;;23.40;46.00;;;;;;6267060;28;20085;-53
2023/05/26 09:40:59;;;;;;;0.82;0.73;;;23.50;46.00;;;;;;6268639;28;20797;-56
2023/05/26 09:44:07;;;;;;;0.77;0.60;;;23.50;45.90;;;;;;6269815;28;20177;-55
2023/05/26 09:47:18;;;;;;;1.45;0.70;;;23.50;45.90;;;;;;6296774;28;20657;-57
2023/05/26 09:50:21;;;;;;;0.70;0.70;;;23.70;45.80;;;;;;6295344;28;20036;-56
2023/05/26 09:53:23;;;;;;;0.60;0.52;;;23.70;45.70;;;;;;6263667;28;20857;-58
2023/05/26 09:56:31;;;;;;;0.73;0.57;;;23.60;45.80;;;;;;6281249;28;20717;-54
2023/05/26 09:59:37;;;;;;;0.50;0.50;;;23.40;45.40;;;;;;6309953;28;20484;-51
2023/05/26 10:02:40;;;;;;;1.13;0.80;;;23.70;45.50;;;;;;6282273;28;20755;-57
2023/05/26 10:05:45;;;;;;;1.15;0.73;;;23.60;45.50;;;;;;6294262;28;20047;-54
2023/05/26 10:08:56;;;;;;;0.68;0.50;;;23.70;45.40;;;;;;6289809;28;20695;-56
2023/05/26 10:11:59;;;;;;;0.85;0.60;;;22.90;44.90;;;;;;6299770;28;20261;-55
2023/05/26 10:15:01;;;;;;;1.08;0.75;;;23.70;45.20;;;;;;6290593;28;20040;-51
2023/05/26 10:18:04;;;;;;;0.70;0.50;;;23.40;44.80;;;;;;6304676;28;20036;-55
2023/05/26 10:21:09;;;;;;;1.48;0.80;;;23.80;44.90;;;;;;6302189;28;20048;-51
2023/05/26 10:24:17;;;;;;;0.63;0.50;;;23.80;44.70;;;;;;6257678;28;20391;-57
2023/05/26 10:27:25;;;;;;;1.05;0.85;;;24.10;44.80;;;;;;6264172;28;20733;-55
2023/05/26 10:30:29;;;;;;;0.80;0.55;;;23.90;44.50;;;;;;6291015;28;20209;-56
2023/05/26 10:33:38;;;;;;;1.58;0.80;;;23.90;44.40;;;;;;6297072;28;20439;-56
2023/05/26 10:36:41;;;;;;;1.65;0.70;;;23.70;44.10;;;;;;6294499;28;20090;-53
2023/05/26 10:39:44;;;;;;;0.75;0.68;;;23.90;44.30;;;;;;6291723;28;20232;-52
2023/05/26 10:42:49;;;;;;;0.90;0.65;;;23.70;44.00;;;;;;6257285;28;20075;-53
2023/05/26 10:45:54;;;;;;;1.38;0.75;;;23.80;43.90;;;;;;6298875;28;20245;-55
2023/05/26 10:48:58;;;;;;;0.63;0.60;;;23.50;43.60;;;;;;6299034;28;20096;-53
2023/05/26 10:52:09;;;;;;;1.10;0.80;;;24.00;43.90;;;;;;6263370;28;20740;-53
2023/05/26 10:55:28;;;;;;;1.30;0.70;;;24.00;43.70;;;;;;6247357;28;20164;-52
2023/05/26 10:58:32;;;;;;;0.75;0.50;;;24.10;43.60;;;;;;6296874;28;20032;-53
2023/05/26 11:01:34;;;;;;;0.57;0.57;;;24.00;43.30;;;;;;6304610;28;20035;-54
2023/05/26 11:04:44;;;;;;;0.68;0.55;;;23.90;43.20;;;;;;6303631;28;20529;-52
2023/05/26 11:07:54;;;;;;;1.05;0.73;;;24.00;43.00;;;;;;6303864;28;20081;-51
2023/05/26 11:11:00;;;;;;;0.73;0.57;;;24.10;43.00;;;;;;6301280;28;20761;-54
2023/05/26 11:14:04;;;;;;;0.65;0.50;;;23.20;42.40;;;;;;6302770;28;20036;-55
2023/05/26 11:17:06;;;;;;;1.00;0.70;;;24.20;42.80;;;;;;6303099;28;20054;-54
2023/05/26 11:20:16;;;;;;;0.93;0.60;;;24.10;42.70;;;;;;6300488;28;20227;-51
2023/05/26 11:23:19;;;;;;;0.63;0.50;;;24.00;42.50;;;;;;6303012;28;20052;-53
2023/05/26 11:26:22;;;;;;;0.95;0.50;;;24.60;43.60;;;;;;6301596;28;20081;-51
2023/05/26 11:29:23;;;;;;;0.60;0.50;;;24.20;42.60;;;;;;6304552;28;20036;-54
2023/05/26 11:32:25;;;;;;;0.63;0.50;;;24.40;42.60;;;;;;6306486;28;20787;-52
2023/05/26 11:35:28;;;;;;;0.90;0.50;;;24.00;42.30;;;;;;6306620;28;20762;-55
2023/05/26 11:38:31;;;;;;;0.43;0.40;;;24.30;42.40;;;;;;6289091;28;20040;-54
2023/05/26 11:41:37;;;;;;;0.75;0.50;;;24.30;42.30;;;;;;6301962;28;20048;-52
2023/05/26 11:44:38;;;;;;;1.33;0.90;;;24.30;42.40;;;;;;6305510;28;20442;-53
2023/05/26 11:47:40;;;;;;;0.70;0.50;;;24.40;42.20;;;;;;6307496;28;20519;-54
2023/05/26 11:50:41;;;;;;;1.00;0.70;;;24.30;42.20;;;;;;6306794;28;20048;-55
2023/05/26 11:53:45;;;;;;;1.05;0.70;;;24.40;42.10;;;;;;6306044;28;20051;-53
2023/05/26 11:56:50;;;;;;;0.70;0.70;;;24.40;42.00;;;;;;6304491;28;20107;-54
2023/05/26 11:59:52;;;;;;;0.85;0.70;;;24.50;42.10;;;;;;6284116;28;20047;-56
2023/05/26 12:02:54;;;;;;;1.00;0.88;;;24.30;41.90;;;;;;6300221;28;20085;-52
2023/05/26 12:06:06;;;;;;;1.27;0.80;;;24.40;42.00;;;;;;6302210;28;20422;-54
2023/05/26 12:09:10;;;;;;;0.65;0.57;;;24.20;41.90;;;;;;6303682;28;20040;-53
2023/05/26 12:12:12;;;;;;;1.00;0.70;;;24.40;42.10;;;;;;6286303;28;20510;-51
2023/05/26 12:15:19;;;;;;;0.93;0.70;;;24.40;42.10;;;;;;6305147;28;20039;-56
2023/05/26 12:18:22;;;;;;;0.50;0.50;;;24.30;42.00;;;;;;6305626;28;20032;-55
2023/05/26 12:21:25;;;;;;;0.80;0.65;;;24.30;42.00;;;;;;6305148;28;20047;-58
2023/05/26 12:24:29;;;;;;;0.70;0.60;;;24.40;42.00;;;;;;6304110;28;20044;-53
2023/05/26 12:27:38;;;;;;;0.75;0.45;;;24.20;41.90;;;;;;6304867;28;20043;-52
2023/05/26 12:30:39;;;;;;;0.50;0.50;;;24.30;42.00;;;;;;6306196;28;20059;-53
2023/05/26 12:34:01;;;;;;;;;;;24.40;42.00;;;;;;6305144;28;20047;-52
2023/05/26 12:37:02;;;;;;;;;;;24.30;42.00;;;;;;6304889;28;20011;-57
2023/05/26 12:40:05;;;;;;;0.85;0.50;;;24.10;42.00;;;;;;6304050;28;19928;-53
2023/05/26 12:43:07;;;;;;;0.75;0.50;;;24.40;42.10;;;;;;6305163;28;20048;-52
2023/05/26 12:46:09;;;;;;;0.63;0.50;;;24.30;42.00;;;;;;6305862;28;20746;-54
2023/05/26 12:49:11;;;;;;;0.88;0.50;;;24.30;42.00;;;;;;6301320;28;20716;-56
2023/05/26 12:52:13;;;;;;;0.90;0.60;;;24.10;41.90;;;;;;6306417;28;20048;-54
2023/05/26 12:55:15;;;;;;;0.70;0.60;;;24.30;42.00;;;;;;6308076;28;20431;-53
2023/05/26 12:58:17;;;;;;;0.80;0.70;;;24.30;42.00;;;;;;6283443;28;20737;-53
2023/05/26 13:01:19;;;;;;;0.60;0.60;;;24.40;42.00;;;;;;6279818;28;20113;-55
2023/05/26 13:04:20;;;;;;;0.77;0.57;;;24.10;42.00;;;;;;6277476;28;20044;-54
2023/05/26 13:07:22;;;;;;;0.60;0.40;;;24.30;42.10;;;;;;6300182;28;20040;-55
2023/05/26 13:10:24;;;;;;;0.90;0.60;;;24.30;42.00;;;;;;6473898;22;20721;-56
2023/05/26 13:13:31;;;;;;;1.15;0.80;;;24.30;42.00;;;;;;6279131;28;20040;-55
2023/05/26 13:16:32;;;;;;;0.80;0.70;;;24.30;42.00;;;;;;6278170;28;20036;-54
2023/05/26 13:19:37;;;;;;;0.70;0.63;;;24.30;41.90;;;;;;6281232;28;20622;-57
2023/05/26 13:22:44;;;;;;;0.60;0.40;;;24.30;42.00;;;;;;6262426;28;20050;-57
2023/05/26 13:25:47;;;;;;;0.73;0.60;;;24.40;42.00;;;;;;6280732;28;20094;-56
2023/05/26 13:28:50;;;;;;;1.05;0.63;;;24.10;41.90;;;;;;6282180;28;20702;-57
2023/05/26 13:31:52;;;;;;;0.95;0.50;;;24.20;41.80;;;;;;6281835;28;20048;-56
2023/05/26 13:34:54;;;;;;;0.75;0.63;;;24.30;41.90;;;;;;6282322;28;20036;-57
2023/05/26 13:37:55;;;;;;;0.57;0.40;;;24.30;41.90;;;;;;6280412;28;20543;-58
2023/05/26 13:40:58;;;;;;;1.05;0.57;;;24.40;42.00;;;;;;6282426;28;20731;-58
2023/05/26 13:44:00;;;;;;;0.55;0.50;;;24.30;41.90;;;;;;6282919;28;20036;-57
2023/05/26 13:47:02;;;;;;;0.77;0.57;;;24.20;41.90;;;;;;6281109;28;20037;-55
2023/05/26 13:50:05;;;;;;;0.65;0.55;;;24.20;42.00;;;;;;6283137;28;20041;-56
2023/05/26 13:53:09;;;;;;;1.23;0.80;;;24.40;42.20;;;;;;6282129;28;20044;-57
2023/05/26 13:56:11;;;;;;;0.70;0.47;;;24.00;42.20;;;;;;6281336;28;20158;-57
2023/05/26 13:59:29;;;;;;;1.00;0.73;;;24.10;42.20;;;;;;6249460;28;20051;-56
2023/05/26 14:02:32;;;;;;;0.75;0.40;;;24.20;42.30;;;;;;6276616;28;20048;-56
2023/05/26 14:05:33;;;;;;;0.65;0.52;;;24.20;42.30;;;;;;6280676;28;20371;-57
2023/05/26 14:08:35;;;;;;;0.90;0.73;;;24.10;42.40;;;;;;6280727;28;20696;-51
2023/05/26 14:11:38;;;;;;;0.82;0.57;;;24.20;42.40;;;;;;6276847;28;20036;-55
2023/05/26 14:14:40;;;;;;;1.20;0.75;;;24.30;42.50;;;;;;6275540;28;20037;-56
2023/05/26 14:17:44;;;;;;;0.68;0.50;;;24.20;42.50;;;;;;6279484;28;20033;-54
2023/05/26 14:20:54;;;;;;;0.77;0.60;;;24.30;42.50;;;;;;6282428;28;20115;-54
2023/05/26 14:24:15;;;;;;;1.17;0.50;;;24.00;42.40;;;;;;6279852;28;20543;-54
2023/05/26 14:27:18;;;;;;;0.70;0.60;;;24.30;42.50;;;;;;6282342;28;20594;-55
2023/05/26 14:30:22;;;;;;;0.70;0.60;;;24.30;42.50;;;;;;6284279;28;20131;-54
2023/05/26 14:33:23;;;;;;;1.25;1.00;;;24.00;42.40;;;;;;6286813;28;20043;-54
2023/05/26 14:36:25;;;;;;;0.80;0.60;;;24.00;42.30;;;;;;6284804;28;20032;-54
2023/05/26 14:39:29;;;;;;;1.42;0.98;;;24.20;42.40;;;;;;6283872;28;20107;-54
2023/05/26 14:42:30;;;;;;;0.90;0.70;;;24.00;42.40;;;;;;6285400;28;20043;-55
2023/05/26 14:45:32;;;;;;;0.90;0.73;;;24.10;42.50;;;;;;6284924;28;20033;-53
2023/05/26 14:48:36;;;;;;;1.13;1.00;;;23.90;42.70;;;;;;6284240;28;20040;-53
2023/05/26 14:51:37;;;;;;;2.75;0.57;;;24.00;42.60;;;;;;6281113;28;20098;-55
2023/05/26 14:54:39;;;;;;;0.82;0.68;;;24.40;42.90;;;;;;6279560;28;20666;-55
2023/05/26 14:57:42;;;;;;;0.80;0.50;;;24.20;42.80;;;;;;6279135;28;20090;-55
2023/05/26 15:00:44;;;;;;;1.48;0.60;;;24.40;42.90;;;;;;6285137;28;20032;-54
2023/05/26 15:03:46;;;;;;;1.10;0.90;;;24.20;42.70;;;;;;6284892;28;20590;-55
2023/05/26 15:07:07;;;;;;;0.70;0.70;;;24.20;42.60;;;;;;6283595;28;20044;-54
2023/05/26 15:10:09;;;;;;;1.00;0.60;;;24.30;42.70;;;;;;6275638;28;20028;-54
2023/05/26 15:13:14;;;;;;;0.93;0.60;;;24.20;42.70;;;;;;6284414;28;20079;-52
2023/05/26 15:16:16;;;;;;;0.80;0.63;;;24.20;42.80;;;;;;6285512;28;20040;-52
2023/05/26 15:19:18;;;;;;;1.00;0.60;;;24.10;42.80;;;;;;6284182;28;20043;-54
2023/05/26 15:22:19;;;;;;;0.98;0.70;;;24.50;43.00;;;;;;6278894;28;20041;-59
2023/05/26 15:25:21;;;;;;;0.63;0.50;;;24.20;42.80;;;;;;6278682;28;20701;-59
2023/05/26 15:28:25;;;;;;;1.05;0.60;;;24.00;42.70;;;;;;6275744;28;20045;-54
2023/05/26 15:31:27;;;;;;;0.88;0.57;;;24.20;42.80;;;;;;6281217;28;20086;-55
2023/05/26 15:34:28;;;;;;;1.70;0.80;;;24.10;42.80;;;;;;6282978;28;20114;-54
2023/05/26 15:37:32;;;;;;;0.82;0.65;;;24.20;43.00;;;;;;6281595;28;20039;-56
2023/05/26 15:40:45;;;;;;;2.20;0.63;;;24.20;43.00;;;;;;6282804;28;20043;-55
2023/05/26 15:43:48;;;;;;;1.35;0.70;;;24.20;43.10;;;;;;6280077;28;20076;-55
2023/05/26 15:46:52;;;;;;;1.10;0.70;;;24.20;43.20;;;;;;6281178;28;20115;-54
2023/05/26 15:49:54;;;;;;;0.73;0.55;;;24.00;43.20;;;;;;6281834;28;20052;-55
2023/05/26 15:52:55;;;;;;;1.17;0.70;;;24.30;43.40;;;;;;6274986;28;20119;-51
2023/05/26 15:55:59;;;;;;;1.13;0.80;;;24.20;43.60;;;;;;6281807;28;20045;-56
2023/05/26 15:59:01;;;;;;;0.80;0.73;;;24.20;43.50;;;;;;6284615;28;20656;-54
2023/05/26 16:02:03;;;;;;;1.48;0.65;;;24.20;43.60;;;;;;6280372;28;20037;-55